Information Last Ob Photographs Calibration Meteogram Network Table Neighbors Monthly Summaries Observation History Wind Roses Custom Wind Roses Data Calendar Satellite Cloud Product Download

19 April 2024 Observation History, [SDA] SHENANDOAH MUNI, timezone: America/Chicago

Select Date: Time Order:

Show METARs   Show High Frequency MADIS

Previous Day
Time Wind
(mph)
Vis.
(mi.)
Sky Cond.
(100s ft)
Present Wx Temperature (ºF) Relative
Humidity
Pressure Snow
Depth
(in)
Precipitation (in.)
Air Dwpt Feels Like 6 hour altimeter
(in.)
sea level
(mb)
1 hr 3 hr 6 hr
Max.Min.
12:15 AMCalm10 CLR
413241 70% 30.240
KSDA 190515Z AUTO 00000KT 10SM CLR 05/00 A3024 RMK AO2
12:35 AMCalm10 CLR
413241 70% 30.240
KSDA 190535Z AUTO 00000KT 10SM CLR 05/M00 A3024 RMK AO2
12:55 AMCalm10 CLR
413241 70% 30.250
KSDA 190555Z AUTO 00000KT 10SM CLR 05/M00 A3025 RMK AO2
1:15 AMCalm10 CLR
373237 81% 30.240
KSDA 190615Z AUTO 00000KT 10SM CLR 03/00 A3024 RMK AO2
1:35 AMCalm10 CLR
393239 75% 30.240
KSDA 190635Z AUTO 00000KT 10SM CLR 04/00 A3024 RMK AO2
1:55 AMCalm10 CLR
373237 81% 30.240
KSDA 190655Z AUTO 00000KT 10SM CLR 03/M00 A3024 RMK AO2
2:15 AMCalm10 CLR
363436 93% 30.230
KSDA 190715Z AUTO 00000KT 10SM CLR 02/01 A3023 RMK AO2
2:35 AMSW 310 FEW120
363633 100% 30.240
KSDA 190735Z AUTO 22003KT 10SM FEW120 02/02 A3024 RMK AO2
2:55 AMCalm10 FEW110
373637 93% 30.220
KSDA 190755Z AUTO 00000KT 10SM FEW110 03/02 A3022 RMK AO2
3:15 AMCalm10 SCT110
373637 93% 30.230
KSDA 190815Z AUTO 00000KT 10SM SCT110 03/02 A3023 RMK AO2
3:35 AMCalm10 FEW120
363636 100% 30.230
KSDA 190835Z AUTO 00000KT 10SM FEW120 02/02 A3023 RMK AO2
3:55 AMCalm10 FEW100
FEW120
373637 93% 30.240
KSDA 190855Z AUTO 00000KT 10SM FEW100 FEW120 03/02 A3024 RMK AO2
4:15 AMCalm10 CLR
363636 100% 30.240
KSDA 190915Z AUTO 00000KT 10SM CLR 02/02 A3024 RMK AO2
4:35 AMCalm10 FEW120
363636 100% 30.240
KSDA 190935Z AUTO 00000KT 10SM FEW120 02/02 A3024 RMK AO2
4:55 AMCalm10 SCT120
373637 93% 30.240
KSDA 190955Z AUTO 00000KT 10SM SCT120 03/02 A3024 RMK AO2
5:15 AMCalm10 BKN110
373737 100% 30.240
KSDA 191015Z AUTO 00000KT 10SM BKN110 03/03 A3024 RMK AO2
5:35 AMCalm10 FEW095
BKN120
373737 100% 30.240
KSDA 191035Z AUTO 00000KT 10SM FEW095 BKN120 03/03 A3024 RMK AO2
5:55 AMCalm10 FEW120
373737 100% 30.240
KSDA 191055Z AUTO 00000KT 10SM FEW120 03/03 A3024 RMK AO2
6:15 AMCalm10 BKN110
373737 100% 30.250
KSDA 191115Z AUTO 00000KT 10SM BKN110 03/03 A3025 RMK AO2
6:35 AMSSW 510 BKN110
373634 93% 30.260
KSDA 191135Z AUTO 21004KT 10SM BKN110 03/02 A3026 RMK AO2
6:55 AMSW 310 FEW120
373735 100% 30.270
KSDA 191155Z AUTO 22003KT 10SM FEW120 03/03 A3027 RMK AO2
7:15 AMSSW 310 CLR
373635 93% 30.280
KSDA 191215Z AUTO 21003KT 10SM CLR 03/02 A3028 RMK AO2
7:35 AMCalm10 CLR
393639 87% 30.270
KSDA 191235Z AUTO 00000KT 10SM CLR 04/02 A3027 RMK AO2
7:55 AMCalm10 CLR
413741 87% 30.280
KSDA 191255Z AUTO 00000KT 10SM CLR 05/03 A3028 RMK AO2
8:15 AMCalm10 FEW120
413741 87% 30.270
KSDA 191315Z AUTO 00000KT 10SM FEW120 05/03 A3027 RMK AO2
8:55 AMWSW 510 CLR
463744 71% 30.280
KSDA 191355Z AUTO 25004KT 10SM CLR 08/03 A3028 RMK AO2
9:15 AMWSW 610 CLR
463643 66% 30.280
KSDA 191415Z AUTO 25005KT 10SM CLR 08/02 A3028 RMK AO2
9:35 AMWSW 610 CLR
483446 57% 30.270
KSDA 191435Z AUTO 25005KT 10SM CLR 09/01 A3027 RMK AO2
9:55 AMW 910 CLR
503450 54% 30.270
KSDA 191455Z AUTO 27008KT 10SM CLR 10/01 A3027 RMK AO2
10:15 AMVRB 710 CLR
523252 47% 30.280
KSDA 191515Z AUTO VRB06KT 10SM CLR 11/M00 A3028 RMK AO2
10:35 AMWNW 1010 CLR
522852 40% 30.280
KSDA 191535Z AUTO 30009KT 10SM CLR 11/M02 A3028 RMK AO2
10:55 AMW 1310 CLR
543054 41% 30.280
KSDA 191555Z AUTO 28011KT 10SM CLR 12/M01 A3028 RMK AO2
11:15 AMWNW 9G 1610 CLR
542854 38% 30.280
KSDA 191615Z AUTO 29008G14KT 260V330 10SM CLR 12/M02 A3028 RMK AO2
11:35 AMNW 10G 1810 SCT120
552855 35% 30.280
KSDA 191635Z AUTO 31009G16KT 280V350 10SM SCT120 13/M02 A3028 RMK AO2
11:55 AMVRB 510 FEW120
543054 41% 30.270
KSDA 191655Z AUTO VRB04G16KT 10SM FEW120 12/M01 A3027 RMK AO2
12:15 PMNNW 12G 189 CLR
572757 31% 30.270
KSDA 191715Z AUTO 33010G16KT 290V350 9SM CLR 14/M03 A3027 RMK AO2
12:35 PMNNW 13G 1810 CLR
572557 28% 30.260
KSDA 191735Z AUTO 33011G16KT 300V360 10SM CLR 14/M04 A3026 RMK AO2
12:55 PMW 12G 1810 CLR
552555 30% 30.260
KSDA 191755Z AUTO 28010G16KT 10SM CLR 13/M04 A3026 RMK AO2
1:15 PMW 14G 2010 CLR
572857 33% 30.240
KSDA 191815Z AUTO 28012G17KT 10SM CLR 14/M02 A3024 RMK AO2
1:35 PMWNW 8G 1810 FEW120
572857 33% 30.240
KSDA 191835Z AUTO 29007G16KT 260V320 10SM FEW120 14/M02 A3024 RMK AO2
1:55 PMWNW 10G 2010 CLR
572757 31% 30.240
KSDA 191855Z AUTO 30009G17KT 270V330 10SM CLR 14/M03 A3024 RMK AO2
2:15 PMWNW 8G 1710 SCT120
572557 28% 30.240
KSDA 191915Z AUTO 30007G15KT 270V330 10SM SCT120 14/M04 A3024 RMK AO2
2:35 PMNW 10G 2110 BKN120
592559 27% 30.230
KSDA 191935Z AUTO 32009G18KT 10SM BKN120 15/M04 A3023 RMK AO2
2:55 PMWNW 10G 1610 BKN120
592559 27% 30.230
KSDA 191955Z AUTO 30009G14KT 280V340 10SM BKN120 15/M04 A3023 RMK AO2
3:15 PMWNW 9G 1810 OVC120
572557 28% 30.230
KSDA 192015Z AUTO 29008G16KT 10SM OVC120 14/M04 A3023 RMK AO2
3:35 PMNW 13G 2110 OVC120
592359 25% 30.220
KSDA 192035Z AUTO 32011G18KT 10SM OVC120 15/M05 A3022 RMK AO2
3:55 PMNW 1210 OVC110
592559 27% 30.220
KSDA 192055Z AUTO 32010KT 290V350 10SM OVC110 15/M04 A3022 RMK AO2
4:15 PMNW 10G 1810 OVC110
572357 26% 30.220
KSDA 192115Z AUTO 31009G16KT 10SM OVC110 14/M05 A3022 RMK AO2

The IEM API webservice that provided data to this page. For more details, see documentation.

Data Notes

  • For recent years, this page also optionally shows observations from the MADIS High Frequency METAR dataset. This dataset had a problem with temperatures detailed here.